Terminal Aerodrome Forecast
Issued by NWS Shreveport, LA

Home | Current Version | Previous Version | Text Only | Print | Product List | Glossary On
Versions: 1 2 3 4 5 6 7 8 9 10 11 12 13
000
FTUS44 KSHV 282342
TAFGGG
TAF
KGGG 282342Z 2900/2924 VRB05KT P6SM SCT200
     FM290600 15004KT P6SM BKN200
     FM291400 21007KT P6SM BKN200
     FM292100 17006KT P6SM SCT250=

USA.gov is the U.S. government's official web portal to all federal, state and local government web resources and services.